Time;durP1;ratioP1;P1;durP2;ratioP2;P2;SDS_P1;SDS_P2;PMS_P1;PMS_P2;Temp;Humidity;BMP_temperature;BMP_pressure;BME280_temperature;BME280_humidity;BME280_pressure;Samples;Min_cycle;Max_cycle;Signal;HPM_P1;HPM_P2
2023/11/02 00:02:19;;;;;;;0.10;0.10;;;;;;;9.73;80.28;96659.72;7357876;19;21039;-58
2023/11/02 00:04:45;;;;;;;0.10;0.10;;;;;;;9.70;80.15;96663.41;7358766;19;20011;-56
2023/11/02 00:07:11;;;;;;;0.10;0.10;;;;;;;9.75;80.10;96652.59;7358604;19;20453;-58
2023/11/02 00:09:39;;;;;;;0.10;0.10;;;;;;;9.74;80.06;96648.34;7362072;19;20475;-59
2023/11/02 00:12:07;;;;;;;0.10;0.10;;;;;;;9.66;80.16;96635.13;7364724;19;20052;-58
2023/11/02 00:14:53;;;;;;;0.10;0.10;;;;;;;9.82;80.40;96645.91;7358901;19;20015;-58
2023/11/02 00:17:30;;;;;;;0.10;0.10;;;;;;;9.84;80.44;96638.81;7361578;19;20471;-57
2023/11/02 00:19:56;;;;;;;0.10;0.10;;;;;;;9.82;80.33;96632.88;7364824;19;20038;-57
2023/11/02 00:22:21;;;;;;;0.10;0.10;;;;;;;9.83;80.45;96637.13;7363326;19;20593;-58
2023/11/02 00:24:49;;;;;;;0.10;0.10;;;;;;;9.84;80.46;96628.38;7364396;19;20030;-59
2023/11/02 00:27:15;;;;;;;0.10;0.10;;;;;;;9.79;80.33;96620.13;7367623;19;20015;-55
2023/11/02 00:29:41;;;;;;;0.10;0.10;;;;;;;9.86;80.36;96626.47;7356819;19;20042;-57
2023/11/02 00:32:08;;;;;;;0.03;0.03;;;;;;;9.87;80.39;96625.50;7354159;19;20126;-58
2023/11/02 00:34:34;;;;;;;0.10;0.10;;;;;;;9.88;80.49;96614.13;7370567;19;20010;-57
2023/11/02 00:37:00;;;;;;;0.05;0.05;;;;;;;9.70;80.17;96598.28;7362324;19;20435;-58
2023/11/02 00:39:26;;;;;;;0.10;0.10;;;;;;;9.89;80.05;96613.19;7361710;19;20010;-59
2023/11/02 00:41:52;;;;;;;0.10;0.10;;;;;;;9.91;80.12;96608.66;7361923;19;20006;-58
2023/11/02 00:44:18;;;;;;;0.10;0.10;;;;;;;9.92;80.16;96605.09;7363945;19;20030;-58
2023/11/02 00:46:45;;;;;;;0.10;0.10;;;;;;;9.94;80.60;96591.97;7356287;19;20006;-58
2023/11/02 00:49:19;;;;;;;0.10;0.10;;;;;;;9.97;80.29;96596.88;7369342;19;20006;-57
2023/11/02 00:51:54;;;;;;;0.10;0.10;;;;;;;9.98;80.16;96594.13;7365226;19;20013;-57
2023/11/02 00:54:44;;;;;;;0.10;0.10;;;;;;;10.01;80.59;96593.06;7363953;19;20565;-58
2023/11/02 00:57:11;;;;;;;0.03;0.03;;;;;;;10.00;80.63;96587.03;7368804;19;20006;-59
2023/11/02 00:59:38;;;;;;;0.10;0.10;;;;;;;10.01;80.64;96583.47;7372638;19;19999;-59
2023/11/02 01:02:05;;;;;;;0.10;0.10;;;;;;;10.01;80.23;96573.03;7366008;19;20569;-59
2023/11/02 01:04:43;;;;;;;0.10;0.10;;;;;;;10.06;80.28;96570.84;7365984;19;20025;-58
2023/11/02 01:07:10;;;;;;;;;;;;;;;10.09;80.43;96560.19;7367259;19;20014;-58
2023/11/02 01:09:47;;;;;;;0.10;0.10;;;;;;;10.09;80.59;96559.34;7361747;19;19930;-58
2023/11/02 01:12:27;;;;;;;0.10;0.10;;;;;;;10.09;80.54;96565.38;7367461;19;20014;-58
2023/11/02 01:14:52;;;;;;;0.10;0.10;;;;;;;10.06;80.40;96557.81;7358076;19;20332;-57
2023/11/02 01:17:32;;;;;;;0.10;0.10;;;;;;;10.10;80.41;96556.59;7365711;19;20019;-57
2023/11/02 01:20:33;;;;;;;0.03;0.03;;;;;;;10.09;80.27;96560.19;7368895;19;21127;-58
2023/11/02 01:23:13;;;;;;;0.10;0.10;;;;;;;10.10;80.58;96559.22;7367142;19;20450;-57
2023/11/02 01:25:44;;;;;;;0.10;0.10;;;;;;;10.10;80.52;96555.78;7355608;19;20034;-58
2023/11/02 01:28:15;;;;;;;0.10;0.10;;;;;;;10.10;80.70;96558.41;7366950;19;20833;-56
2023/11/02 01:30:40;;;;;;;0.10;0.10;;;;;;;10.08;80.68;96553.28;7364710;19;20078;-57
2023/11/02 01:33:36;;;;;;;0.10;0.10;;;;;;;10.12;80.49;96541.66;7355386;19;20113;-58
2023/11/02 01:36:02;;;;;;;0.10;0.10;;;;;;;10.11;80.56;96541.78;7369409;19;20011;-57
2023/11/02 01:38:30;;;;;;;0.05;0.05;;;;;;;10.11;80.32;96539.19;7362678;19;20622;-58
2023/11/02 01:41:10;;;;;;;0.10;0.10;;;;;;;10.12;80.64;96536.44;7356251;19;20023;-58
2023/11/02 01:43:42;;;;;;;0.10;0.10;;;;;;;10.13;80.28;96545.91;7360100;19;20086;-56
2023/11/02 01:46:20;;;;;;;0.10;0.10;;;;;;;10.13;80.24;96532.88;7368051;19;20010;-57
2023/11/02 01:48:51;;;;;;;0.10;0.10;;;;;;;10.11;80.56;96534.78;7361418;19;20006;-58
2023/11/02 01:51:27;;;;;;;0.03;0.03;;;;;;;10.13;80.55;96527.66;7356683;19;20014;-58
2023/11/02 01:54:06;;;;;;;0.10;0.10;;;;;;;10.00;80.31;96502.81;7365932;19;20459;-58
2023/11/02 01:56:53;;;;;;;0.00;0.00;;;;;;;10.17;80.35;96525.59;7365191;19;20044;-57
2023/11/02 01:59:33;;;;;;;0.10;0.10;;;;;;;10.13;80.49;96519.84;7364067;19;20021;-59
2023/11/02 02:02:14;;;;;;;0.10;0.10;;;;;;;10.13;80.26;96525.03;7367774;19;20011;-58
2023/11/02 02:04:43;;;;;;;0.10;0.10;;;;;;;10.15;80.52;96527.53;7358297;19;20011;-56
2023/11/02 02:07:38;;;;;;;0.08;0.08;;;;;;;10.19;80.67;96528.91;7365270;19;20479;-57
2023/11/02 02:10:14;;;;;;;0.00;0.00;;;;;;;10.19;80.29;96517.66;7358300;19;20014;-58
2023/11/02 02:13:10;;;;;;;0.10;0.10;;;;;;;10.22;80.16;96530.41;7365315;19;20111;-58
2023/11/02 02:15:44;;;;;;;0.10;0.10;;;;;;;10.21;80.29;96528.78;7355289;19;20025;-58
2023/11/02 02:18:18;;;;;;;0.03;0.03;;;;;;;10.19;80.27;96526.31;7358416;19;20006;-58
2023/11/02 02:20:49;;;;;;;0.05;0.05;;;;;;;10.22;80.36;96522.59;7359047;19;20353;-58
2023/11/02 02:23:17;;;;;;;0.00;0.00;;;;;;;10.21;80.70;96531.38;7367168;19;20627;-58
2023/11/02 02:25:45;;;;;;;0.10;0.10;;;;;;;10.22;80.34;96527.81;7364112;19;20014;-57
2023/11/02 02:28:32;;;;;;;0.10;0.10;;;;;;;10.23;80.28;96525.06;7363369;19;20502;-56
2023/11/02 02:31:01;;;;;;;0.10;0.10;;;;;;;10.22;80.26;96531.25;7361111;19;20010;-57
2023/11/02 02:33:35;;;;;;;0.00;0.00;;;;;;;10.25;80.65;96522.38;7343531;19;20038;-58
2023/11/02 02:36:06;;;;;;;0.10;0.10;;;;;;;10.25;80.57;96524.97;7368806;19;20007;-57
2023/11/02 02:38:52;;;;;;;0.10;0.10;;;;;;;10.26;80.19;96524.00;7363386;19;20439;-58
2023/11/02 02:41:20;;;;;;;0.10;0.10;;;;;;;10.24;80.13;96525.91;7357013;19;20339;-58
2023/11/02 02:43:50;;;;;;;0.10;0.10;;;;;;;10.24;80.36;96520.69;7362587;19;20013;-57
2023/11/02 02:46:18;;;;;;;0.10;0.10;;;;;;;10.23;80.12;96513.81;7361260;19;20621;-58
2023/11/02 02:48:45;;;;;;;0.08;0.08;;;;;;;10.22;79.95;96513.00;7363356;19;20007;-58
2023/11/02 02:51:12;;;;;;;0.10;0.10;;;;;;;10.21;79.92;96515.75;7362440;19;20014;-58
2023/11/02 02:53:39;;;;;;;0.00;0.00;;;;;;;10.21;80.23;96515.75;7359371;19;20014;-58
2023/11/02 02:56:09;;;;;;;0.10;0.10;;;;;;;10.21;80.47;96513.13;7363392;19;20018;-58
2023/11/02 02:58:44;;;;;;;0.10;0.10;;;;;;;10.23;80.02;96513.81;7357745;19;20028;-58
2023/11/02 03:01:10;;;;;;;0.10;0.10;;;;;;;10.20;80.00;96514.09;7362800;19;20015;-56
2023/11/02 03:03:38;;;;;;;0.10;0.10;;;;;;;10.20;80.37;96514.09;7362612;19;20095;-59
2023/11/02 03:06:06;;;;;;;0.00;0.00;;;;;;;10.20;80.07;96514.09;7361012;19;20057;-57
2023/11/02 03:08:34;;;;;;;0.10;0.10;;;;;;;10.06;79.81;96497.06;7363029;19;20025;-58
2023/11/02 03:11:00;;;;;;;0.10;0.10;;;;;;;10.19;80.23;96512.44;7358622;19;20027;-59
2023/11/02 03:13:28;;;;;;;0.10;0.10;;;;;;;10.21;80.11;96513.13;7359909;19;20014;-58
2023/11/02 03:15:56;;;;;;;0.10;0.10;;;;;;;10.04;79.89;96489.38;7357925;19;20100;-57
2023/11/02 03:18:33;;;;;;;0.10;0.10;;;;;;;10.20;80.00;96508.88;7346453;19;20683;-58
2023/11/02 03:20:58;;;;;;;0.10;0.10;;;;;;;10.16;80.11;96505.72;7362425;19;20037;-58
2023/11/02 03:23:30;;;;;;;0.10;0.10;;;;;;;10.16;80.07;96510.94;7356431;19;20011;-57
2023/11/02 03:26:05;;;;;;;0.00;0.00;;;;;;;10.10;79.67;96494.06;7363941;19;20031;-58
2023/11/02 03:28:52;;;;;;;0.10;0.10;;;;;;;10.18;80.11;96509.00;7353665;19;20011;-58
2023/11/02 03:31:20;;;;;;;0.10;0.10;;;;;;;10.16;79.76;96505.72;7364838;19;20023;-59
2023/11/02 03:34:00;;;;;;;0.10;0.10;;;;;;;10.17;80.06;96509.16;7361911;19;20018;-58
2023/11/02 03:36:41;;;;;;;0.10;0.10;;;;;;;10.17;80.11;96503.94;7368096;19;20014;-58
2023/11/02 03:39:28;;;;;;;0.10;0.10;;;;;;;10.16;79.92;96508.31;7361780;19;20029;-57
2023/11/02 03:42:26;;;;;;;0.10;0.10;;;;;;;10.13;79.94;96498.97;7365185;19;20026;-57
2023/11/02 03:45:10;;;;;;;0.15;0.15;;;;;;;10.13;79.85;96492.94;7368502;19;20462;-58
2023/11/02 03:47:49;;;;;;;0.10;0.10;;;;;;;10.11;79.84;96495.69;7364948;19;20030;-58
2023/11/02 03:50:45;;;;;;;0.10;0.10;;;;;;;10.11;79.45;96500.91;7364639;19;20014;-59
2023/11/02 03:53:18;;;;;;;0.10;0.10;;;;;;;9.99;79.38;96480.31;7367669;19;20048;-57
2023/11/02 03:56:10;;;;;;;0.03;0.03;;;;;;;10.07;79.70;96494.31;7370543;19;20053;-57
2023/11/02 03:58:53;;;;;;;0.10;0.10;;;;;;;10.07;79.34;96489.09;7365093;19;20033;-57
2023/11/02 04:01:40;;;;;;;0.10;0.10;;;;;;;10.08;79.41;96497.75;7361535;19;20015;-58
2023/11/02 04:04:09;;;;;;;0.10;0.10;;;;;;;10.05;79.31;96496.25;7367388;19;20462;-58
2023/11/02 04:06:50;;;;;;;0.10;0.10;;;;;;;10.00;79.85;96488.00;7368375;19;20026;-59
2023/11/02 04:09:20;;;;;;;0.10;0.10;;;;;;;10.05;79.91;96501.44;7367438;19;20460;-57
2023/11/02 04:11:59;;;;;;;0.05;0.05;;;;;;;10.08;80.07;96501.16;7367408;19;20014;-57
2023/11/02 04:14:26;;;;;;;0.10;0.10;;;;;;;10.05;79.52;96493.63;7366337;19;20478;-57
2023/11/02 04:16:51;;;;;;;0.10;0.10;;;;;;;10.04;79.43;96494.59;7376973;19;20522;-57
2023/11/02 04:19:17;;;;;;;0.10;0.10;;;;;;;10.04;79.40;96497.19;7333235;19;20003;-58
2023/11/02 04:21:42;;;;;;;0.10;0.10;;;;;;;10.03;79.83;96499.91;7361136;19;20099;-58
2023/11/02 04:24:08;;;;;;;0.10;0.10;;;;;;;10.04;79.55;96510.22;7368694;19;20011;-58
2023/11/02 04:26:34;;;;;;;0.00;0.00;;;;;;;9.96;79.79;96491.81;7367445;19;20003;-57
2023/11/02 04:28:59;;;;;;;0.03;0.03;;;;;;;9.70;79.42;96451.59;7367717;19;20010;-56
2023/11/02 04:31:25;;;;;;;0.10;0.10;;;;;;;10.01;79.64;96494.84;7363422;19;20037;-58
2023/11/02 04:33:50;;;;;;;0.00;0.00;;;;;;;10.05;79.57;96506.66;7367905;19;20117;-57
2023/11/02 04:36:16;;;;;;;0.10;0.10;;;;;;;10.03;79.89;96505.97;7363097;19;20026;-58
2023/11/02 04:38:41;;;;;;;0.10;0.10;;;;;;;10.06;79.67;96508.31;7370369;19;20028;-57
2023/11/02 04:41:07;;;;;;;0.10;0.10;;;;;;;10.04;80.07;96501.59;7369119;19;20018;-57
2023/11/02 04:43:32;;;;;;;0.20;0.20;;;;;;;9.95;79.97;96484.97;7357974;19;20775;-58
2023/11/02 04:45:58;;;;;;;0.10;0.10;;;;;;;10.04;79.86;96510.22;7360657;19;20820;-56
2023/11/02 04:48:23;;;;;;;0.10;0.10;;;;;;;10.03;79.55;96508.56;7365475;19;20388;-56
2023/11/02 04:50:55;;;;;;;0.10;0.10;;;;;;;10.04;79.49;96505.03;7369348;19;20010;-58
2023/11/02 04:53:22;;;;;;;0.10;0.10;;;;;;;9.92;79.56;96498.25;7329371;19;20066;-58
2023/11/02 04:55:48;;;;;;;0.10;0.10;;;;;;;9.99;79.37;96502.00;7364951;19;20010;-56
2023/11/02 04:58:13;;;;;;;0.10;0.10;;;;;;;9.98;79.37;96505.53;7362158;19;20029;-58
2023/11/02 05:00:39;;;;;;;0.00;0.00;;;;;;;9.98;79.63;96502.09;7368435;19;20018;-58
2023/11/02 05:03:04;;;;;;;0.10;0.10;;;;;;;9.90;79.27;96492.38;7362216;19;20040;-58
2023/11/02 05:05:30;;;;;;;0.00;0.00;;;;;;;9.95;79.02;96507.59;7365367;19;20010;-57
2023/11/02 05:07:55;;;;;;;0.10;0.10;;;;;;;9.93;78.45;96505.09;7360144;19;20021;-58
2023/11/02 05:10:20;;;;;;;0.00;0.00;;;;;;;9.91;78.75;96504.44;7364052;19;20341;-57
2023/11/02 05:12:46;;;;;;;0.10;0.10;;;;;;;9.79;78.64;96490.69;7358839;19;20010;-57
2023/11/02 05:15:11;;;;;;;0.00;0.00;;;;;;;9.83;78.71;96497.28;7366708;19;20405;-57
2023/11/02 05:17:37;;;;;;;0.10;0.10;;;;;;;9.84;78.46;96508.53;7361249;19;20006;-57
2023/11/02 05:20:03;;;;;;;0.10;0.10;;;;;;;9.80;78.54;96504.53;7367111;19;20027;-57
2023/11/02 05:22:28;;;;;;;0.10;0.10;;;;;;;9.76;78.21;96501.38;7363010;19;20471;-57
2023/11/02 05:24:54;;;;;;;0.00;0.00;;;;;;;9.77;78.18;96502.19;7363596;19;20003;-57
2023/11/02 05:27:19;;;;;;;0.10;0.10;;;;;;;9.65;78.12;96485.03;7368233;19;20039;-58
2023/11/02 05:29:44;;;;;;;0.10;0.10;;;;;;;9.72;78.24;96499.16;7364738;19;21011;-57
2023/11/02 05:32:10;;;;;;;0.00;0.00;;;;;;;9.69;77.79;96504.66;7360989;19;20470;-57
2023/11/02 05:34:35;;;;;;;0.00;0.00;;;;;;;9.65;77.79;96505.88;7362135;19;19999;-59
2023/11/02 05:37:01;;;;;;;0.10;0.10;;;;;;;9.62;77.83;96515.56;7366661;19;20024;-57
2023/11/02 05:39:26;;;;;;;0.00;0.00;;;;;;;9.59;78.27;96515.84;7365922;19;20010;-57
2023/11/02 05:41:52;;;;;;;0.00;0.00;;;;;;;9.55;78.26;96519.66;7361723;19;20034;-58
2023/11/02 05:44:17;;;;;;;0.10;0.10;;;;;;;9.53;78.05;96516.38;7362309;19;20002;-58
2023/11/02 05:46:42;;;;;;;0.10;0.10;;;;;;;9.09;77.99;96453.28;7365536;19;20006;-58
2023/11/02 05:49:08;;;;;;;0.00;0.00;;;;;;;9.47;78.01;96535.13;7363511;19;20017;-60
2023/11/02 05:51:33;;;;;;;0.10;0.10;;;;;;;9.43;78.37;96535.50;7337619;19;21340;-58
2023/11/02 05:53:59;;;;;;;0.10;0.10;;;;;;;9.34;78.13;96521.50;7366083;19;20817;-57
2023/11/02 05:56:24;;;;;;;0.00;0.00;;;;;;;9.37;78.01;96531.63;7361726;19;20014;-57
2023/11/02 05:58:53;;;;;;;0.10;0.10;;;;;;;9.33;78.28;96531.09;7366144;19;20018;-56
2023/11/02 06:01:19;;;;;;;0.10;0.10;;;;;;;9.29;77.92;96534.09;7360978;19;20562;-57
2023/11/02 06:03:46;;;;;;;0.10;0.10;;;;;;;9.24;78.11;96537.06;7367101;19;20018;-58
2023/11/02 06:06:11;;;;;;;0.10;0.10;;;;;;;9.22;78.18;96540.75;7360537;19;20026;-58
2023/11/02 06:08:37;;;;;;;0.10;0.10;;;;;;;9.17;78.27;96543.72;7362832;19;20002;-57
2023/11/02 06:11:03;;;;;;;0.10;0.10;;;;;;;9.13;78.06;96539.75;7366045;19;20854;-56
2023/11/02 06:13:29;;;;;;;0.10;0.10;;;;;;;9.08;78.49;96540.13;7366116;19;20010;-58
2023/11/02 06:15:55;;;;;;;0.10;0.10;;;;;;;9.05;78.29;96548.19;7360409;19;20021;-58
2023/11/02 06:18:20;;;;;;;0.00;0.00;;;;;;;9.02;78.89;96548.44;7364833;19;20087;-55
2023/11/02 06:20:45;;;;;;;0.00;0.00;;;;;;;8.98;78.54;96554.84;7364591;19;20015;-56
2023/11/02 06:23:11;;;;;;;0.10;0.10;;;;;;;8.95;78.78;96547.28;7353964;19;20094;-56
2023/11/02 06:25:36;;;;;;;0.10;0.10;;;;;;;8.91;78.73;96553.69;7359849;19;20010;-57
2023/11/02 06:28:02;;;;;;;0.10;0.10;;;;;;;8.91;78.83;96555.47;7361582;19;20018;-57
2023/11/02 06:30:27;;;;;;;0.00;0.00;;;;;;;8.82;78.90;96546.66;7357281;19;20002;-59
2023/11/02 06:32:59;;;;;;;0.00;0.00;;;;;;;8.89;79.36;96562.59;7367046;19;20015;-58
2023/11/02 06:35:24;;;;;;;0.10;0.10;;;;;;;8.85;79.16;96556.81;7360783;19;20006;-57
2023/11/02 06:37:56;;;;;;;0.10;0.10;;;;;;;8.81;79.10;96560.59;7361159;19;20336;-56
2023/11/02 06:40:23;;;;;;;0.10;0.10;;;;;;;8.74;79.38;96549.88;7354682;19;20034;-58
2023/11/02 06:42:49;;;;;;;0.10;0.10;;;;;;;8.82;79.16;96567.47;7356113;19;20014;-57
2023/11/02 06:45:16;;;;;;;0.10;0.10;;;;;;;8.81;79.27;96581.41;7363371;19;20022;-56
2023/11/02 06:47:41;;;;;;;0.00;0.00;;;;;;;8.76;79.53;96583.56;7368114;19;20010;-56
2023/11/02 06:50:07;;;;;;;0.08;0.08;;;;;;;8.79;79.45;96578.94;7370169;19;20034;-58
2023/11/02 06:52:33;;;;;;;0.00;0.00;;;;;;;8.78;79.41;96592.91;7371934;19;20841;-57
2023/11/02 06:54:58;;;;;;;0.00;0.00;;;;;;;8.76;79.56;96586.16;7361730;19;20010;-57
2023/11/02 06:57:24;;;;;;;0.10;0.10;;;;;;;8.77;79.47;96595.63;7357365;19;20019;-60
2023/11/02 06:59:49;;;;;;;0.00;0.00;;;;;;;8.76;79.55;96589.59;7359076;19;20011;-57
2023/11/02 07:02:15;;;;;;;0.00;0.00;;;;;;;8.68;79.41;96585.97;7361356;19;20368;-57
2023/11/02 07:04:40;;;;;;;0.10;0.10;;;;;;;8.71;79.68;96596.09;7363047;19;20006;-57
2023/11/02 07:07:06;;;;;;;0.00;0.00;;;;;;;8.64;79.70;96594.97;7361417;19;20050;-58
2023/11/02 07:09:31;;;;;;;0.10;0.10;;;;;;;8.71;79.44;96606.50;7360379;19;20043;-58
2023/11/02 07:11:57;;;;;;;0.10;0.10;;;;;;;8.72;79.40;96614.22;7354601;19;20014;-57
2023/11/02 07:14:22;;;;;;;0.10;0.10;;;;;;;8.71;79.17;96611.72;7365005;19;20003;-58
2023/11/02 07:16:47;;;;;;;0.08;0.08;;;;;;;8.69;79.11;96613.63;7366886;19;20517;-58
2023/11/02 07:19:13;;;;;;;0.10;0.10;;;;;;;8.55;79.57;96596.50;7343533;19;20010;-57
2023/11/02 07:21:38;;;;;;;0.03;0.03;;;;;;;8.61;79.23;96608.19;7363920;19;20343;-57
2023/11/02 07:24:04;;;;;;;0.10;0.10;;;;;;;8.62;79.31;96617.66;7362935;19;20006;-57
2023/11/02 07:26:29;;;;;;;0.08;0.08;;;;;;;8.57;79.56;96621.47;7360118;19;20010;-57
2023/11/02 07:28:57;;;;;;;0.10;0.10;;;;;;;8.56;79.52;96617.19;7358693;19;20006;-58
2023/11/02 07:31:23;;;;;;;0.00;0.00;;;;;;;8.51;78.96;96616.72;7361849;19;20372;-57
2023/11/02 07:33:48;;;;;;;0.00;0.00;;;;;;;8.48;79.51;96621.38;7356168;19;20025;-57
2023/11/02 07:36:14;;;;;;;0.10;0.10;;;;;;;8.47;79.24;96636.16;7356274;19;20082;-58
2023/11/02 07:38:40;;;;;;;0.08;0.08;;;;;;;8.44;79.35;96633.78;7355680;19;20076;-58
2023/11/02 07:41:09;;;;;;;0.00;0.00;;;;;;;8.26;79.44;96609.19;7360213;19;20002;-57
2023/11/02 07:43:34;;;;;;;0.10;0.10;;;;;;;8.24;79.59;96613.69;7360415;19;20015;-57
2023/11/02 07:46:00;;;;;;;0.10;0.10;;;;;;;8.28;79.38;96615.09;7365130;19;20078;-57
2023/11/02 07:48:25;;;;;;;0.00;0.00;;;;;;;8.35;79.38;96639.66;7361680;19;21493;-58
2023/11/02 07:50:51;;;;;;;0.10;0.10;;;;;;;8.32;79.52;96642.53;7359916;19;20015;-58
2023/11/02 07:53:19;;;;;;;0.08;0.08;;;;;;;8.33;79.35;96646.75;7360427;19;20002;-57
2023/11/02 07:55:45;;;;;;;0.10;0.10;;;;;;;8.25;79.24;96644.75;7363215;19;20019;-58
2023/11/02 07:58:10;;;;;;;0.10;0.10;;;;;;;8.26;79.04;96658.56;7362059;19;20042;-58
2023/11/02 08:00:36;;;;;;;0.10;0.10;;;;;;;8.27;79.10;96662.84;7354672;19;20013;-57
2023/11/02 08:03:03;;;;;;;0.10;0.10;;;;;;;8.26;79.17;96661.16;7355607;19;20775;-58
2023/11/02 08:05:28;;;;;;;0.03;0.03;;;;;;;7.86;79.39;96609.72;7354833;19;20439;-58
2023/11/02 08:07:54;;;;;;;0.00;0.00;;;;;;;8.22;79.27;96668.41;7358128;19;20009;-58
2023/11/02 08:10:19;;;;;;;0.10;0.10;;;;;;;8.09;79.52;96656.47;7348056;19;20014;-57
2023/11/02 08:12:45;;;;;;;0.10;0.10;;;;;;;8.24;79.52;96670.88;7356724;19;20006;-56
2023/11/02 08:15:10;;;;;;;0.10;0.10;;;;;;;8.24;79.54;96676.88;7350778;19;20021;-57
2023/11/02 08:17:35;;;;;;;0.10;0.10;;;;;;;8.27;79.92;96676.66;7344511;19;20488;-58
2023/11/02 08:20:02;;;;;;;0.08;0.08;;;;;;;8.29;80.07;96663.53;7366946;19;20025;-57
2023/11/02 08:22:28;;;;;;;0.00;0.00;;;;;;;8.40;79.96;96675.72;7366983;19;20033;-57
2023/11/02 08:24:54;;;;;;;0.10;0.10;;;;;;;8.40;79.50;96679.16;7373638;19;20011;-57
2023/11/02 08:27:19;;;;;;;0.03;0.03;;;;;;;8.44;79.55;96692.75;7360996;19;20014;-58
2023/11/02 08:29:47;;;;;;;0.10;0.10;;;;;;;8.45;79.73;96690.00;7363705;19;20550;-57
2023/11/02 08:32:12;;;;;;;0.10;0.10;;;;;;;8.48;79.48;96688.97;7366220;19;20405;-58
2023/11/02 08:34:41;;;;;;;0.10;0.10;;;;;;;8.41;79.67;96678.19;7367165;19;20006;-57
2023/11/02 08:37:08;;;;;;;0.10;0.10;;;;;;;8.49;79.93;96691.44;7367348;19;20044;-57
2023/11/02 08:39:35;;;;;;;0.10;0.10;;;;;;;8.53;79.51;96692.84;7362123;19;20019;-58
2023/11/02 08:42:01;;;;;;;0.10;0.10;;;;;;;8.51;79.53;96694.72;7350575;19;20872;-57
2023/11/02 08:44:27;;;;;;;0.10;0.10;;;;;;;8.58;79.69;96705.50;7345999;19;20007;-59
2023/11/02 08:46:53;;;;;;;0.10;0.10;;;;;;;8.62;79.53;96706.06;7364120;19;20010;-58
2023/11/02 08:49:19;;;;;;;0.10;0.10;;;;;;;8.53;79.52;96694.63;7360365;19;20010;-58
2023/11/02 08:51:44;;;;;;;0.10;0.10;;;;;;;8.66;79.64;96712.69;7361295;19;21636;-57
2023/11/02 08:54:09;;;;;;;0.10;0.10;;;;;;;8.67;79.75;96698.72;7363822;19;20495;-57
2023/11/02 08:56:35;;;;;;;0.10;0.10;;;;;;;8.72;79.72;96699.22;7363022;19;20017;-58
2023/11/02 08:59:00;;;;;;;0.10;0.10;;;;;;;8.68;79.61;96692.59;7360533;19;20043;-57
2023/11/02 09:01:26;;;;;;;0.10;0.10;;;;;;;8.54;79.59;96671.09;7357146;19;20480;-58
2023/11/02 09:03:55;;;;;;;0.10;0.10;;;;;;;8.82;79.75;96698.34;7366897;19;21319;-56
2023/11/02 09:06:24;;;;;;;0.00;0.00;;;;;;;8.88;80.25;96711.81;7365838;19;20006;-58
2023/11/02 09:08:51;;;;;;;0.00;0.00;;;;;;;8.92;79.80;96713.22;7365658;19;20613;-58
2023/11/02 09:11:17;;;;;;;0.10;0.10;;;;;;;8.96;80.15;96723.25;7363616;19;20735;-57
2023/11/02 09:13:44;;;;;;;0.10;0.10;;;;;;;8.89;79.59;96703.88;7363069;19;20086;-56
2023/11/02 09:16:10;;;;;;;0.10;0.10;;;;;;;9.03;79.71;96716.63;7360441;19;20470;-58
2023/11/02 09:18:38;;;;;;;0.10;0.10;;;;;;;9.06;79.66;96716.38;7363913;19;20014;-59
2023/11/02 09:21:04;;;;;;;0.10;0.10;;;;;;;9.12;79.68;96724.63;7364316;19;20018;-58
2023/11/02 09:23:30;;;;;;;0.10;0.10;;;;;;;9.14;79.72;96723.56;7361425;19;20019;-57
2023/11/02 09:25:55;;;;;;;0.10;0.10;;;;;;;9.19;79.67;96721.44;7361835;19;20003;-57
2023/11/02 09:28:21;;;;;;;0.10;0.10;;;;;;;9.24;79.59;96723.66;7358808;19;20023;-58
2023/11/02 09:30:47;;;;;;;0.10;0.10;;;;;;;9.28;79.42;96725.91;7363863;19;20056;-58
2023/11/02 09:33:13;;;;;;;0.10;0.10;;;;;;;9.32;79.54;96727.28;7362819;19;20376;-57
2023/11/02 09:35:39;;;;;;;0.10;0.10;;;;;;;9.38;79.55;96731.19;7367913;19;20014;-57
2023/11/02 09:38:04;;;;;;;0.10;0.10;;;;;;;9.43;79.73;96734.25;7360826;19;20007;-56
2023/11/02 09:40:32;;;;;;;0.10;0.10;;;;;;;9.49;79.42;96738.94;7372289;19;20006;-57
2023/11/02 09:43:01;;;;;;;;;;;;;;;9.60;80.46;96746.69;7361097;19;20018;-56
2023/11/02 09:45:27;;;;;;;0.08;0.08;;;;;;;9.65;79.81;96748.09;7366246;19;19926;-58
2023/11/02 09:47:52;;;;;;;0.10;0.10;;;;;;;9.71;79.44;96752.81;7357538;19;20486;-58
2023/11/02 09:50:17;;;;;;;0.10;0.10;;;;;;;9.78;79.50;96753.94;7359127;19;20120;-58
2023/11/02 09:52:46;;;;;;;0.10;0.10;;;;;;;9.79;78.92;96742.59;7366444;19;20006;-59
2023/11/02 09:55:13;;;;;;;0.10;0.10;;;;;;;9.94;79.19;96762.16;7371966;19;20494;-58
2023/11/02 09:57:38;;;;;;;0.10;0.10;;;;;;;10.04;78.85;96768.25;7357939;19;20014;-58
2023/11/02 10:00:07;;;;;;;0.10;0.10;;;;;;;10.12;78.41;96763.22;7363889;19;20014;-58
2023/11/02 10:02:33;;;;;;;0.00;0.00;;;;;;;10.23;78.54;96764.09;7359222;19;20019;-57
2023/11/02 10:04:59;;;;;;;0.10;0.10;;;;;;;10.33;78.49;96767.63;7357630;19;20010;-57
2023/11/02 10:07:25;;;;;;;0.10;0.10;;;;;;;10.42;78.11;96769.44;7361759;19;20023;-58
2023/11/02 10:09:50;;;;;;;0.03;0.03;;;;;;;10.54;78.31;96778.84;7358137;19;21233;-58
2023/11/02 10:12:17;;;;;;;0.10;0.10;;;;;;;10.56;78.44;96766.50;7357790;19;20544;-58
2023/11/02 10:14:42;;;;;;;0.00;0.00;;;;;;;10.77;78.37;96781.25;7362011;19;20098;-58
2023/11/02 10:17:10;;;;;;;0.10;0.10;;;;;;;10.90;78.19;96787.09;7364267;19;20014;-57
2023/11/02 10:19:35;;;;;;;0.10;0.10;;;;;;;11.03;78.16;96781.63;7350578;19;20472;-57
2023/11/02 10:22:03;;;;;;;0.10;0.10;;;;;;;11.16;77.76;96785.63;7359426;19;20034;-58
2023/11/02 10:24:36;;;;;;;0.10;0.10;;;;;;;11.22;77.83;96763.38;7363302;19;20006;-58
2023/11/02 10:27:05;;;;;;;0.10;0.10;;;;;;;11.47;77.12;96782.94;7364508;19;20036;-58
2023/11/02 10:29:31;;;;;;;0.10;0.10;;;;;;;11.59;77.04;96781.81;7335483;19;20010;-57
2023/11/02 10:31:57;;;;;;;0.10;0.10;;;;;;;11.73;76.72;96766.72;7363356;19;20017;-57
2023/11/02 10:34:25;;;;;;;0.10;0.10;;;;;;;12.04;76.45;96791.75;7360894;19;20094;-58
2023/11/02 10:36:52;;;;;;;0.10;0.10;;;;;;;12.24;76.06;96789.94;7358970;19;20078;-58
2023/11/02 10:39:22;;;;;;;0.10;0.10;;;;;;;12.53;76.48;96799.50;7363915;19;20021;-57
2023/11/02 10:41:58;;;;;;;0.10;0.10;;;;;;;12.77;76.25;96799.81;7361231;19;20011;-58
2023/11/02 10:44:31;;;;;;;0.10;0.10;;;;;;;12.96;75.76;96798.91;7363070;19;20011;-59
2023/11/02 10:47:02;;;;;;;0.10;0.10;;;;;;;13.07;74.19;96798.69;7365482;19;20367;-59
2023/11/02 10:49:29;;;;;;;0.10;0.10;;;;;;;13.20;73.96;96807.06;7359827;19;20013;-58
2023/11/02 10:51:57;;;;;;;0.10;0.10;;;;;;;13.32;73.97;96807.69;7361566;19;20031;-56
2023/11/02 10:54:44;;;;;;;0.10;0.10;;;;;;;13.43;74.98;96809.28;7364346;19;20022;-56
2023/11/02 10:57:19;;;;;;;0.10;0.10;;;;;;;13.50;74.71;96815.59;7365884;19;20020;-58
2023/11/02 10:59:47;;;;;;;0.10;0.10;;;;;;;13.38;74.53;96799.28;7356377;19;20041;-58
2023/11/02 11:02:17;;;;;;;0.10;0.10;;;;;;;13.55;73.80;96818.59;7360423;19;20034;-58
2023/11/02 11:04:44;;;;;;;0.10;0.10;;;;;;;13.49;73.08;96817.41;7359601;19;20017;-57
2023/11/02 11:07:11;;;;;;;0.10;0.10;;;;;;;13.46;73.47;96816.88;7371121;19;20018;-57
2023/11/02 11:09:38;;;;;;;0.10;0.10;;;;;;;13.34;73.60;96807.56;7362366;19;20522;-58
2023/11/02 11:12:04;;;;;;;0.10;0.10;;;;;;;13.40;73.75;96818.28;7369405;19;20019;-58
2023/11/02 11:14:30;;;;;;;0.10;0.10;;;;;;;13.37;73.31;96836.09;7358739;19;20018;-58
2023/11/02 11:16:57;;;;;;;0.10;0.10;;;;;;;13.32;73.61;96833.06;7363359;19;20718;-58
2023/11/02 11:19:23;;;;;;;0.10;0.10;;;;;;;13.26;74.19;96837.09;7354794;19;20014;-57
2023/11/02 11:21:51;;;;;;;0.10;0.10;;;;;;;13.24;74.28;96839.88;7366056;19;20642;-57
2023/11/02 11:24:16;;;;;;;;;;;;;;;13.29;76.70;96838.63;7364753;19;20007;-58
2023/11/02 11:26:47;;;;;;;0.10;0.10;;;;;;;13.16;74.79;96842.38;7362062;19;19922;-58
2023/11/02 11:29:34;;;;;;;0.10;0.10;;;;;;;13.12;75.44;96846.25;7363678;19;20660;-58
2023/11/02 11:32:00;;;;;;;0.10;0.10;;;;;;;12.99;75.18;96845.75;7359624;19;20011;-58
2023/11/02 11:34:26;;;;;;;0.10;0.10;;;;;;;12.92;74.87;96839.44;7363351;19;20027;-58
2023/11/02 11:37:11;;;;;;;0.10;0.10;;;;;;;12.85;75.17;96838.38;7357511;19;20034;-58
2023/11/02 11:39:38;;;;;;;0.08;0.08;;;;;;;12.81;75.73;96831.78;7361196;19;20779;-57
2023/11/02 11:42:04;;;;;;;0.10;0.10;;;;;;;12.75;76.02;96838.41;7359343;19;20101;-59
2023/11/02 11:44:29;;;;;;;0.05;0.05;;;;;;;12.72;76.04;96841.28;7361246;19;20511;-59
2023/11/02 11:46:57;;;;;;;0.10;0.10;;;;;;;12.69;76.34;96833.75;7361761;19;20045;-57
2023/11/02 11:49:35;;;;;;;;;;;;;;;12.71;77.29;96837.84;7366447;19;20020;-58